Time;durP1;ratioP1;P1;durP2;ratioP2;P2;SDS_P1;SDS_P2;PMS_P1;PMS_P2;Temp;Humidity;BMP_temperature;BMP_pressure;BME280_temperature;BME280_humidity;BME280_pressure;Samples;Min_cycle;Max_cycle;Signal;HPM_P1;HPM_P2
2022/02/28 00:00:41;;;;;;;0.70;0.50;;;2.50;99.90;;;;;;4916940;29;20430;-72
2022/02/28 00:03:06;;;;;;;0.70;0.50;;;2.60;99.90;;;;;;4904713;29;20267;-72
2022/02/28 00:05:33;;;;;;;0.70;0.40;;;2.60;99.90;;;;;;4912395;29;21037;-72
2022/02/28 00:07:58;;;;;;;0.70;0.40;;;2.50;99.90;;;;;;4898201;29;20187;-71
2022/02/28 00:10:24;;;;;;;0.70;0.50;;;2.60;99.90;;;;;;4915495;29;20953;-72
2022/02/28 00:12:50;;;;;;;0.70;0.40;;;2.60;99.90;;;;;;4916463;29;20207;-74
2022/02/28 00:15:17;;;;;;;0.70;0.50;;;2.50;99.90;;;;;;4899587;29;20184;-74
2022/02/28 00:17:43;;;;;;;0.70;0.50;;;2.50;99.90;;;;;;4920157;28;20202;-74
2022/02/28 00:20:10;;;;;;;0.70;0.50;;;2.50;99.90;;;;;;4898982;29;20989;-74
2022/02/28 00:22:36;;;;;;;0.70;0.50;;;2.40;99.90;;;;;;4897577;29;20200;-74
2022/02/28 00:25:05;;;;;;;0.70;0.50;;;2.40;99.90;;;;;;4915468;29;20434;-74
2022/02/28 00:27:31;;;;;;;0.70;0.50;;;2.40;99.90;;;;;;4915882;29;20490;-75
2022/02/28 00:29:56;;;;;;;1.10;0.90;;;2.40;99.90;;;;;;4912996;29;20499;-74
2022/02/28 00:32:23;;;;;;;0.70;0.47;;;2.30;99.90;;;;;;4897659;29;20209;-73
2022/02/28 00:34:49;;;;;;;1.63;0.83;;;2.30;99.90;;;;;;4908570;29;20176;-73
2022/02/28 00:37:15;;;;;;;0.70;0.50;;;2.20;99.90;;;;;;4897396;29;20873;-74
2022/02/28 00:39:41;;;;;;;0.70;0.60;;;2.20;99.90;;;;;;4913080;29;20428;-74
2022/02/28 00:42:07;;;;;;;0.70;0.40;;;2.10;99.90;;;;;;4897514;29;20199;-74
2022/02/28 00:44:33;;;;;;;1.07;0.70;;;2.10;99.90;;;;;;4906462;29;20428;-73
2022/02/28 00:46:58;;;;;;;0.70;0.50;;;2.00;99.90;;;;;;4898293;29;20181;-74
2022/02/28 00:49:24;;;;;;;0.70;0.50;;;2.00;99.90;;;;;;4898460;29;20197;-71
2022/02/28 00:51:49;;;;;;;0.70;0.40;;;1.90;99.90;;;;;;4901759;29;20194;-72
2022/02/28 00:54:15;;;;;;;0.70;0.50;;;1.80;99.90;;;;;;4897395;29;20176;-72
2022/02/28 00:56:41;;;;;;;0.70;0.50;;;1.70;99.90;;;;;;4907890;29;20196;-70
2022/02/28 00:59:06;;;;;;;0.70;0.50;;;1.60;99.90;;;;;;4915734;29;20200;-72
2022/02/28 01:01:34;;;;;;;0.70;0.50;;;1.60;99.90;;;;;;4904778;29;20244;-71
2022/02/28 01:04:00;;;;;;;0.70;0.50;;;1.50;99.90;;;;;;4909697;29;20166;-71
2022/02/28 01:06:25;;;;;;;7.23;1.00;;;1.50;99.90;;;;;;4904180;29;20622;-72
2022/02/28 01:08:51;;;;;;;0.70;0.50;;;1.50;99.90;;;;;;4912012;29;20189;-71
2022/02/28 01:11:17;;;;;;;0.70;0.50;;;1.50;99.90;;;;;;4930320;28;20676;-72
2022/02/28 01:13:42;;;;;;;0.70;0.50;;;1.50;99.90;;;;;;4915866;29;20176;-72
2022/02/28 01:16:08;;;;;;;0.70;0.40;;;1.50;99.90;;;;;;4914925;29;20180;-71
2022/02/28 01:18:33;;;;;;;0.70;0.50;;;1.50;99.90;;;;;;4900305;29;20175;-70
2022/02/28 01:20:59;;;;;;;0.70;0.50;;;1.50;99.90;;;;;;4907876;29;20164;-72
2022/02/28 01:23:24;;;;;;;0.70;0.40;;;1.50;99.90;;;;;;4912818;29;20208;-71
2022/02/28 01:25:50;;;;;;;0.70;0.50;;;1.50;99.90;;;;;;4896786;29;20173;-72
2022/02/28 01:28:15;;;;;;;0.70;0.50;;;1.50;99.90;;;;;;4913080;29;20198;-70
2022/02/28 01:30:41;;;;;;;0.70;0.40;;;1.50;99.90;;;;;;4915515;29;20189;-72
2022/02/28 01:33:06;;;;;;;0.70;0.47;;;1.50;99.90;;;;;;4915461;29;20202;-72
2022/02/28 01:35:32;;;;;;;0.70;0.50;;;1.50;99.90;;;;;;4903113;29;20190;-70
2022/02/28 01:37:58;;;;;;;0.70;0.40;;;1.50;99.90;;;;;;4896795;29;20223;-71
2022/02/28 01:40:24;;;;;;;0.70;0.50;;;1.50;99.90;;;;;;4900478;29;20837;-71
2022/02/28 01:42:50;;;;;;;0.70;0.40;;;1.50;99.90;;;;;;4900617;29;20196;-72
2022/02/28 01:45:21;;;;;;;0.70;0.50;;;1.40;99.90;;;;;;4916706;29;20434;-70
2022/02/28 01:47:48;;;;;;;0.70;0.40;;;1.50;99.90;;;;;;4919180;29;20211;-71
2022/02/28 01:50:14;;;;;;;0.70;0.40;;;1.40;99.90;;;;;;4903452;29;20484;-71
2022/02/28 01:52:41;;;;;;;0.70;0.50;;;1.40;99.90;;;;;;4915032;29;20790;-72
2022/02/28 01:55:09;;;;;;;0.70;0.40;;;1.40;99.90;;;;;;4901464;29;20254;-72
2022/02/28 01:57:34;;;;;;;0.70;0.43;;;1.40;99.90;;;;;;4917161;29;20451;-71
2022/02/28 02:00:00;;;;;;;0.70;0.50;;;1.40;99.90;;;;;;4918996;29;20449;-70
2022/02/28 02:02:26;;;;;;;1.03;0.90;;;1.40;99.90;;;;;;4916417;29;20198;-72
2022/02/28 02:04:52;;;;;;;0.70;0.40;;;1.40;99.90;;;;;;4900365;29;20189;-72
2022/02/28 02:07:17;;;;;;;0.70;0.50;;;1.40;99.90;;;;;;4902635;29;20609;-71
2022/02/28 02:09:43;;;;;;;0.70;0.40;;;1.30;99.90;;;;;;4906280;29;20214;-72
2022/02/28 02:12:09;;;;;;;0.70;0.50;;;1.30;99.90;;;;;;4898906;29;20201;-72
2022/02/28 02:14:36;;;;;;;0.70;0.50;;;1.30;99.90;;;;;;4900200;29;20188;-72
2022/02/28 02:17:02;;;;;;;0.70;0.50;;;1.20;99.90;;;;;;4906864;29;20979;-72
2022/02/28 02:19:27;;;;;;;0.80;0.70;;;1.20;99.90;;;;;;4911671;29;20435;-72
2022/02/28 02:21:53;;;;;;;0.70;0.50;;;1.20;99.90;;;;;;4915637;29;20199;-71
2022/02/28 02:24:19;;;;;;;0.70;0.40;;;1.10;99.90;;;;;;4900016;29;20181;-72
2022/02/28 02:26:44;;;;;;;0.70;0.40;;;1.10;99.90;;;;;;4914567;29;20185;-71
2022/02/28 02:29:10;;;;;;;0.70;0.40;;;1.10;99.90;;;;;;4900567;29;20271;-71
2022/02/28 02:31:35;;;;;;;1.53;1.43;;;1.10;99.90;;;;;;4906228;29;20211;-72
2022/02/28 02:34:01;;;;;;;0.70;0.40;;;1.00;99.90;;;;;;4904358;29;20187;-71
2022/02/28 02:36:26;;;;;;;1.00;0.90;;;1.00;99.90;;;;;;4917724;29;20204;-71
2022/02/28 02:38:52;;;;;;;0.80;0.70;;;0.90;99.90;;;;;;4913090;29;20177;-71
2022/02/28 02:41:19;;;;;;;0.70;0.50;;;0.90;99.90;;;;;;4917069;29;20173;-71
2022/02/28 02:43:45;;;;;;;0.70;0.40;;;0.80;99.90;;;;;;4931920;28;20416;-71
2022/02/28 02:46:10;;;;;;;0.70;0.60;;;0.80;99.90;;;;;;4918735;29;20943;-71
2022/02/28 02:48:36;;;;;;;0.90;0.70;;;0.80;99.90;;;;;;4918810;29;20428;-71
2022/02/28 02:51:02;;;;;;;0.70;0.40;;;0.70;99.90;;;;;;4906685;29;20176;-71
2022/02/28 02:53:27;;;;;;;0.70;0.50;;;0.70;99.90;;;;;;4899866;29;20216;-71
2022/02/28 02:55:53;;;;;;;0.80;0.70;;;0.70;99.90;;;;;;4903627;29;20178;-71
2022/02/28 02:58:19;;;;;;;0.70;0.70;;;0.60;99.90;;;;;;4909458;29;20635;-71
2022/02/28 03:00:48;;;;;;;0.70;0.50;;;0.60;99.90;;;;;;4918442;29;20428;-71
2022/02/28 03:03:19;;;;;;;0.70;0.50;;;0.60;99.90;;;;;;4915193;29;20200;-71
2022/02/28 03:05:45;;;;;;;0.70;0.50;;;0.60;99.90;;;;;;4899187;29;20424;-71
2022/02/28 03:08:11;;;;;;;1.00;0.60;;;0.60;99.90;;;;;;4909838;29;20431;-71
2022/02/28 03:10:37;;;;;;;0.70;0.50;;;0.60;99.90;;;;;;4913251;29;20521;-71
2022/02/28 03:13:02;;;;;;;0.70;0.50;;;0.60;99.90;;;;;;4899440;29;20211;-71
2022/02/28 03:15:28;;;;;;;0.70;0.50;;;0.60;99.90;;;;;;4899481;29;20187;-71
2022/02/28 03:17:53;;;;;;;0.80;0.60;;;0.70;99.90;;;;;;4902461;29;20378;-71
2022/02/28 03:20:19;;;;;;;0.70;0.50;;;0.60;99.90;;;;;;4918222;29;20186;-71
2022/02/28 03:22:44;;;;;;;0.70;0.50;;;0.70;99.90;;;;;;4918130;29;20244;-71
2022/02/28 03:25:10;;;;;;;0.70;0.50;;;0.60;99.90;;;;;;4917207;29;20183;-71
2022/02/28 03:27:36;;;;;;;0.70;0.40;;;0.60;99.90;;;;;;4917609;29;20183;-71
2022/02/28 03:30:04;;;;;;;0.70;0.50;;;0.60;99.90;;;;;;4903140;29;20646;-71
2022/02/28 03:32:30;;;;;;;0.70;0.40;;;0.60;99.90;;;;;;4917636;29;20462;-71
2022/02/28 03:34:55;;;;;;;0.70;0.40;;;0.60;99.90;;;;;;4911090;29;20432;-71
2022/02/28 03:37:21;;;;;;;0.80;0.50;;;0.60;99.90;;;;;;4914689;29;20645;-71
2022/02/28 03:39:46;;;;;;;0.70;0.50;;;0.60;99.90;;;;;;4899190;29;20180;-71
2022/02/28 03:42:12;;;;;;;1.57;1.03;;;0.60;99.90;;;;;;4898919;29;20208;-71
2022/02/28 03:44:37;;;;;;;0.70;0.47;;;0.60;99.90;;;;;;4915286;29;20670;-71
2022/02/28 03:47:03;;;;;;;0.70;0.40;;;0.60;99.90;;;;;;4917618;29;20184;-71
2022/02/28 03:49:30;;;;;;;0.70;0.40;;;0.60;99.90;;;;;;4909755;29;20184;-71
2022/02/28 03:51:55;;;;;;;0.70;0.40;;;0.60;99.90;;;;;;4898862;29;20508;-71
2022/02/28 03:54:21;;;;;;;0.70;0.40;;;0.60;99.90;;;;;;4915751;29;20469;-71
2022/02/28 03:56:46;;;;;;;0.70;0.50;;;0.60;99.90;;;;;;4931858;29;20259;-71
2022/02/28 03:59:13;;;;;;;0.93;0.93;;;0.60;99.90;;;;;;4907531;29;20192;-71
2022/02/28 04:01:39;;;;;;;0.83;0.70;;;0.60;99.90;;;;;;4898111;29;20674;-73
2022/02/28 04:04:05;;;;;;;0.73;0.57;;;0.50;99.90;;;;;;4913749;29;20445;-74
2022/02/28 04:06:32;;;;;;;0.70;0.43;;;0.50;99.90;;;;;;4916978;29;20463;-74
2022/02/28 04:08:58;;;;;;;0.70;0.40;;;0.50;99.90;;;;;;4917091;29;20773;-74
2022/02/28 04:11:24;;;;;;;0.70;0.40;;;0.50;99.90;;;;;;4917086;29;20531;-74
2022/02/28 04:13:50;;;;;;;0.70;0.50;;;0.50;99.90;;;;;;4917126;29;20467;-74
2022/02/28 04:16:16;;;;;;;0.80;0.70;;;0.50;99.90;;;;;;4899867;29;20523;-71
2022/02/28 04:18:41;;;;;;;0.70;0.50;;;0.50;99.90;;;;;;4917257;29;20266;-71
2022/02/28 04:21:07;;;;;;;0.70;0.40;;;0.50;99.90;;;;;;4930973;28;20191;-71
2022/02/28 04:23:32;;;;;;;1.03;0.80;;;0.50;99.90;;;;;;4899366;29;20985;-71
2022/02/28 04:26:02;;;;;;;0.70;0.50;;;0.40;99.90;;;;;;4897550;29;20670;-70
2022/02/28 04:28:28;;;;;;;0.70;0.50;;;0.40;99.90;;;;;;4916302;29;20191;-72
2022/02/28 04:30:53;;;;;;;1.03;0.70;;;0.40;99.90;;;;;;4913739;29;20432;-71
2022/02/28 04:33:19;;;;;;;0.70;0.50;;;0.40;99.90;;;;;;4911392;29;20349;-71
2022/02/28 04:35:44;;;;;;;0.70;0.40;;;0.30;99.90;;;;;;4916372;29;20187;-70
2022/02/28 04:38:10;;;;;;;2.30;1.83;;;0.30;99.90;;;;;;4916489;29;20215;-71
2022/02/28 04:40:36;;;;;;;0.70;0.50;;;0.20;99.90;;;;;;4916521;29;20507;-71
2022/02/28 04:43:02;;;;;;;0.70;0.50;;;0.20;99.90;;;;;;4915605;29;20230;-71
2022/02/28 04:45:28;;;;;;;0.70;0.40;;;0.20;99.90;;;;;;4916447;29;20412;-71
2022/02/28 04:47:53;;;;;;;0.70;0.50;;;0.20;99.90;;;;;;4916171;29;20418;-73
2022/02/28 04:50:19;;;;;;;0.70;0.50;;;0.20;99.90;;;;;;4916409;29;20415;-74
2022/02/28 04:52:45;;;;;;;0.80;0.63;;;0.20;99.90;;;;;;4906120;29;20968;-72
2022/02/28 04:55:11;;;;;;;0.70;0.43;;;0.20;99.90;;;;;;4908095;29;20268;-74
2022/02/28 04:57:42;;;;;;;0.70;0.40;;;0.20;99.90;;;;;;4915986;29;20209;-73
2022/02/28 05:00:09;;;;;;;0.70;0.40;;;0.20;99.90;;;;;;4916198;29;20611;-75
2022/02/28 05:02:34;;;;;;;1.87;1.00;;;0.20;99.90;;;;;;4907249;29;20445;-72
2022/02/28 05:05:03;;;;;;;0.80;0.63;;;0.10;99.90;;;;;;4897267;29;20938;-73
2022/02/28 05:07:28;;;;;;;0.70;0.50;;;0.10;99.90;;;;;;4908017;29;20581;-73
2022/02/28 05:09:54;;;;;;;0.70;0.50;;;0.10;99.90;;;;;;4910970;29;20436;-71
2022/02/28 05:12:19;;;;;;;0.70;0.50;;;0.00;99.90;;;;;;4903318;29;20215;-72
2022/02/28 05:14:45;;;;;;;0.70;0.40;;;0.00;99.90;;;;;;4915214;29;20188;-72
2022/02/28 05:17:10;;;;;;;0.70;0.50;;;0.00;99.90;;;;;;4915630;29;20578;-73
2022/02/28 05:19:36;;;;;;;0.70;0.50;;;0.00;99.90;;;;;;4916010;29;20185;-73
2022/02/28 05:22:03;;;;;;;9.03;2.97;;;0.00;99.90;;;;;;4911527;29;20205;-72
2022/02/28 05:24:29;;;;;;;0.70;0.40;;;0.00;99.90;;;;;;4896983;29;20176;-73
2022/02/28 05:26:55;;;;;;;0.70;0.50;;;-0.10;99.90;;;;;;4925328;29;20476;-72
2022/02/28 05:29:20;;;;;;;0.70;0.40;;;-0.10;99.90;;;;;;4896971;29;20498;-73
2022/02/28 05:31:46;;;;;;;0.70;0.50;;;-0.10;99.90;;;;;;4907502;29;20286;-72
2022/02/28 05:34:11;;;;;;;0.90;0.80;;;-0.10;99.90;;;;;;4897418;29;20326;-73
2022/02/28 05:36:37;;;;;;;0.70;0.50;;;-0.20;99.90;;;;;;4896926;29;20207;-72
2022/02/28 05:39:03;;;;;;;1.10;0.70;;;-0.20;99.90;;;;;;4897208;29;20177;-72
2022/02/28 05:41:28;;;;;;;0.70;0.40;;;-0.30;99.90;;;;;;4912997;29;20193;-72
2022/02/28 05:43:54;;;;;;;1.00;0.90;;;-0.30;99.90;;;;;;4910980;29;20187;-72
2022/02/28 05:46:19;;;;;;;0.70;0.50;;;-0.30;99.90;;;;;;4930059;28;20199;-73
2022/02/28 05:48:45;;;;;;;0.70;0.40;;;-0.30;99.90;;;;;;4915455;29;20176;-71
2022/02/28 05:51:10;;;;;;;0.70;0.40;;;-0.40;99.90;;;;;;4915599;29;20314;-72
2022/02/28 05:53:36;;;;;;;0.70;0.47;;;-0.30;99.90;;;;;;4902079;29;20262;-71
2022/02/28 05:56:02;;;;;;;0.70;0.40;;;-0.30;99.90;;;;;;4909039;29;20261;-71
2022/02/28 05:58:27;;;;;;;0.70;0.50;;;-0.30;99.90;;;;;;4915671;29;20225;-71
2022/02/28 06:00:53;;;;;;;0.70;0.40;;;-0.30;99.90;;;;;;4915248;29;20180;-73
2022/02/28 06:03:18;;;;;;;0.70;0.40;;;-0.30;99.90;;;;;;4913606;29;20199;-71
2022/02/28 06:05:44;;;;;;;0.70;0.43;;;-0.30;99.90;;;;;;4915613;29;20223;-71
2022/02/28 06:08:09;;;;;;;0.70;0.40;;;-0.30;99.90;;;;;;4915025;29;20184;-71
2022/02/28 06:10:35;;;;;;;0.70;0.40;;;-0.30;99.90;;;;;;4926739;28;20649;-72
2022/02/28 06:13:00;;;;;;;0.70;0.50;;;-0.30;99.90;;;;;;4896869;29;20671;-72
2022/02/28 06:15:26;;;;;;;0.70;0.50;;;-0.40;99.90;;;;;;4896685;29;20531;-71
2022/02/28 06:17:52;;;;;;;0.70;0.50;;;-0.40;99.90;;;;;;4896237;29;20224;-72
2022/02/28 06:20:17;;;;;;;0.70;0.43;;;-0.40;99.90;;;;;;4912882;29;20483;-73
2022/02/28 06:22:44;;;;;;;0.70;0.40;;;-0.40;99.90;;;;;;4914604;29;20200;-73
2022/02/28 06:25:10;;;;;;;0.70;0.40;;;-0.30;99.90;;;;;;4916876;29;20242;-72
2022/02/28 06:27:35;;;;;;;0.70;0.40;;;-0.30;99.90;;;;;;4913527;29;20484;-72
2022/02/28 06:30:01;;;;;;;0.70;0.40;;;-0.30;99.90;;;;;;4900000;29;20534;-73
2022/02/28 06:32:26;;;;;;;0.70;0.47;;;-0.30;99.90;;;;;;4905307;29;20224;-72
2022/02/28 06:34:53;;;;;;;0.70;0.50;;;-0.20;99.90;;;;;;4918885;29;20266;-72
2022/02/28 06:37:19;;;;;;;0.70;0.40;;;-0.20;99.90;;;;;;4913340;29;20196;-72
2022/02/28 06:39:45;;;;;;;1.03;0.90;;;-0.10;99.90;;;;;;4914358;29;20492;-72
2022/02/28 06:42:11;;;;;;;0.70;0.40;;;-0.10;99.90;;;;;;4903192;29;20217;-72
2022/02/28 06:44:37;;;;;;;0.70;0.50;;;0.00;99.90;;;;;;4918664;29;20447;-72
2022/02/28 06:47:03;;;;;;;0.70;0.50;;;0.00;99.90;;;;;;4932837;28;20184;-72
2022/02/28 06:49:28;;;;;;;0.70;0.50;;;0.10;99.90;;;;;;4910923;29;20233;-72
2022/02/28 06:51:53;;;;;;;0.70;0.40;;;0.10;99.90;;;;;;4917009;29;20438;-71
2022/02/28 06:54:19;;;;;;;0.70;0.50;;;0.20;99.90;;;;;;4899665;29;20666;-72
2022/02/28 06:56:45;;;;;;;0.70;0.50;;;0.20;99.90;;;;;;4899391;29;20193;-72
2022/02/28 06:59:10;;;;;;;0.70;0.40;;;0.30;99.90;;;;;;4899446;29;20185;-71
2022/02/28 07:01:36;;;;;;;0.70;0.50;;;0.30;99.90;;;;;;4903181;29;20184;-71
2022/02/28 07:04:03;;;;;;;0.70;0.40;;;0.40;99.90;;;;;;4900591;29;20658;-72
2022/02/28 07:06:29;;;;;;;0.70;0.40;;;0.40;99.90;;;;;;4912705;29;20231;-74
2022/02/28 07:08:55;;;;;;;0.70;0.50;;;0.50;99.90;;;;;;4918227;29;20767;-72
2022/02/28 07:11:21;;;;;;;0.80;0.70;;;0.50;99.90;;;;;;4918133;29;20405;-73
2022/02/28 07:13:47;;;;;;;0.70;0.40;;;0.60;99.90;;;;;;4909735;29;20865;-72
2022/02/28 07:16:15;;;;;;;0.70;0.50;;;0.60;99.90;;;;;;4917729;29;20198;-72
2022/02/28 07:18:40;;;;;;;0.70;0.50;;;0.70;99.90;;;;;;4916783;29;20435;-72
2022/02/28 07:21:06;;;;;;;0.70;0.47;;;0.70;99.90;;;;;;4917681;29;20420;-73
2022/02/28 07:23:31;;;;;;;0.70;0.40;;;0.80;99.90;;;;;;4902756;29;20610;-72
2022/02/28 07:25:57;;;;;;;0.70;0.50;;;0.90;99.90;;;;;;4899074;29;20665;-73
2022/02/28 07:28:23;;;;;;;0.70;0.40;;;0.90;99.90;;;;;;4898892;29;20175;-72
2022/02/28 07:30:48;;;;;;;0.73;0.67;;;1.00;99.90;;;;;;4907589;29;20204;-72
2022/02/28 07:33:14;;;;;;;4.50;2.30;;;1.10;99.90;;;;;;4905224;29;20200;-72
2022/02/28 07:35:39;;;;;;;0.70;0.50;;;1.10;99.90;;;;;;4898650;29;20179;-72
2022/02/28 07:38:05;;;;;;;0.70;0.50;;;1.20;99.90;;;;;;4897931;29;20212;-72
2022/02/28 07:40:31;;;;;;;0.70;0.50;;;1.30;99.90;;;;;;4904255;29;20215;-71
2022/02/28 07:42:56;;;;;;;0.70;0.40;;;1.50;99.90;;;;;;4907518;29;20200;-71
2022/02/28 07:45:22;;;;;;;1.00;0.77;;;1.60;99.90;;;;;;4898683;29;20261;-73
2022/02/28 07:47:48;;;;;;;0.70;0.50;;;1.80;99.90;;;;;;4898518;29;20186;-72
2022/02/28 07:50:13;;;;;;;0.70;0.40;;;1.90;99.90;;;;;;4898628;29;20208;-72
2022/02/28 07:52:39;;;;;;;0.70;0.40;;;2.10;99.90;;;;;;4905621;29;20673;-72
2022/02/28 07:55:05;;;;;;;0.70;0.50;;;2.30;99.90;;;;;;4917236;29;20187;-72
2022/02/28 07:57:31;;;;;;;0.70;0.50;;;2.50;99.90;;;;;;4917009;29;20689;-71
2022/02/28 07:59:57;;;;;;;0.70;0.50;;;2.70;99.90;;;;;;4905946;29;20476;-72
2022/02/28 08:02:23;;;;;;;0.70;0.50;;;3.00;99.90;;;;;;4903062;29;20202;-71
2022/02/28 08:04:49;;;;;;;0.90;0.80;;;3.40;99.90;;;;;;4916977;29;20176;-72
2022/02/28 08:07:14;;;;;;;1.00;0.73;;;4.10;99.90;;;;;;4931785;28;20418;-73
2022/02/28 08:09:40;;;;;;;1.20;0.83;;;5.10;99.90;;;;;;4931894;28;20227;-73
2022/02/28 08:12:05;;;;;;;1.13;0.80;;;6.10;99.90;;;;;;4914409;29;20195;-73
2022/02/28 08:14:31;;;;;;;2.70;1.43;;;7.00;99.90;;;;;;4907542;29;20183;-72
2022/02/28 08:16:57;;;;;;;1.80;1.17;;;7.90;99.90;;;;;;4914543;29;20284;-74
2022/02/28 08:19:22;;;;;;;1.60;1.40;;;8.60;99.90;;;;;;4916415;29;20259;-74
2022/02/28 08:21:48;;;;;;;0.80;0.70;;;9.30;99.90;;;;;;4899336;29;20193;-74
2022/02/28 08:24:14;;;;;;;1.97;1.57;;;9.80;99.90;;;;;;4912462;29;20831;-74
2022/02/28 08:26:39;;;;;;;0.90;0.70;;;10.40;95.30;;;;;;4897712;29;20173;-74
2022/02/28 08:29:05;;;;;;;1.00;1.00;;;11.00;92.60;;;;;;4909134;29;20508;-73
2022/02/28 08:31:30;;;;;;;2.67;1.77;;;11.50;88.80;;;;;;4916168;29;20203;-73
2022/02/28 08:33:56;;;;;;;1.13;1.03;;;12.00;83.70;;;;;;4905887;29;20240;-73
2022/02/28 08:36:22;;;;;;;3.63;1.63;;;12.60;79.10;;;;;;4914803;29;20183;-73
2022/02/28 08:38:49;;;;;;;4.27;3.30;;;13.20;73.00;;;;;;4907004;29;20183;-74
2022/02/28 08:41:15;;;;;;;0.97;0.87;;;13.70;68.10;;;;;;4908431;29;20227;-74
2022/02/28 08:43:41;;;;;;;1.23;1.13;;;14.20;65.60;;;;;;4916452;29;20415;-75
2022/02/28 08:46:08;;;;;;;1.13;1.03;;;14.80;61.30;;;;;;4907031;29;20974;-75
2022/02/28 08:48:34;;;;;;;1.27;1.17;;;15.20;58.30;;;;;;4904553;29;20182;-75
2022/02/28 08:51:00;;;;;;;1.10;1.00;;;15.60;56.00;;;;;;4916805;29;20408;-73
2022/02/28 08:53:26;;;;;;;1.20;1.00;;;15.90;54.60;;;;;;4916268;29;20807;-74
2022/02/28 08:55:51;;;;;;;1.73;1.63;;;16.20;52.90;;;;;;4916378;29;20175;-74
2022/02/28 08:58:17;;;;;;;1.77;1.30;;;16.50;52.10;;;;;;4929792;28;20636;-73
2022/02/28 09:00:43;;;;;;;1.10;0.93;;;16.80;51.40;;;;;;4916237;29;20255;-73
2022/02/28 09:03:08;;;;;;;2.20;2.00;;;17.00;50.50;;;;;;4915841;29;20531;-73
2022/02/28 09:05:35;;;;;;;1.40;1.30;;;17.30;49.50;;;;;;4915940;29;20180;-73
2022/02/28 09:08:01;;;;;;;2.07;1.87;;;17.50;48.60;;;;;;4914449;29;20191;-73
2022/02/28 09:10:26;;;;;;;1.27;1.17;;;17.80;47.90;;;;;;4915921;29;20490;-72
2022/02/28 09:12:52;;;;;;;1.40;1.30;;;18.00;47.80;;;;;;4930224;28;20199;-73
2022/02/28 09:15:18;;;;;;;1.20;1.03;;;18.40;47.70;;;;;;4923356;29;20182;-74
2022/02/28 09:17:44;;;;;;;1.10;0.80;;;18.80;46.70;;;;;;4915004;29;20498;-74
2022/02/28 09:20:10;;;;;;;1.37;1.10;;;19.10;45.80;;;;;;4915037;29;20462;-75
2022/02/28 09:22:35;;;;;;;3.00;1.53;;;19.40;44.70;;;;;;4930480;28;20688;-75
2022/02/28 09:25:01;;;;;;;1.17;1.07;;;19.60;44.60;;;;;;4916042;29;20175;-75
2022/02/28 09:27:27;;;;;;;1.67;1.27;;;19.90;43.50;;;;;;4915369;29;20515;-75
2022/02/28 09:29:53;;;;;;;3.27;1.57;;;20.00;43.20;;;;;;4914421;29;20179;-75
2022/02/28 09:32:18;;;;;;;2.20;1.03;;;20.20;43.00;;;;;;4915728;29;20431;-75
2022/02/28 09:34:44;;;;;;;2.07;1.57;;;20.60;43.10;;;;;;4915998;29;20168;-74
2022/02/28 09:37:11;;;;;;;2.03;1.80;;;20.80;42.20;;;;;;4915989;29;20278;-74
2022/02/28 09:39:36;;;;;;;3.23;1.83;;;21.40;42.80;;;;;;4928723;28;20594;-74
2022/02/28 09:42:04;;;;;;;2.40;2.20;;;21.60;41.60;;;;;;4906350;29;20592;-74
2022/02/28 09:44:30;;;;;;;2.47;1.80;;;21.80;40.60;;;;;;4896590;29;20168;-74
2022/02/28 09:46:56;;;;;;;1.90;1.37;;;21.80;39.60;;;;;;4901557;29;20423;-74
2022/02/28 09:49:22;;;;;;;2.03;1.80;;;22.00;39.60;;;;;;4904168;29;20519;-74
2022/02/28 09:51:48;;;;;;;1.97;1.70;;;22.10;39.80;;;;;;4904680;29;20449;-74
2022/02/28 09:54:14;;;;;;;6.93;2.13;;;22.20;39.40;;;;;;4916850;29;20415;-74
2022/02/28 09:56:39;;;;;;;1.13;1.03;;;22.40;38.70;;;;;;4915482;29;20205;-74
2022/02/28 09:59:05;;;;;;;5.67;2.70;;;22.80;38.40;;;;;;4930722;28;20187;-74
2022/02/28 10:01:31;;;;;;;2.10;1.80;;;23.00;37.80;;;;;;4918152;29;20191;-74
2022/02/28 10:03:56;;;;;;;2.30;2.10;;;23.20;37.90;;;;;;4920325;29;20164;-74
2022/02/28 10:06:22;;;;;;;1.60;1.40;;;23.30;37.50;;;;;;4919796;29;20168;-74
2022/02/28 10:08:50;;;;;;;2.43;2.23;;;23.40;37.90;;;;;;4934790;28;20176;-74
2022/02/28 10:11:22;;;;;;;3.13;1.97;;;23.80;37.70;;;;;;4913189;29;20435;-74
2022/02/28 10:13:48;;;;;;;1.60;1.20;;;24.20;37.50;;;;;;4901245;29;20989;-74
2022/02/28 10:16:30;;;;;;;3.10;1.37;;;24.50;36.40;;;;;;4900922;29;20420;-74
2022/02/28 10:18:55;;;;;;;1.07;0.90;;;24.70;35.80;;;;;;4916490;29;20184;-74
2022/02/28 10:21:40;;;;;;;1.67;1.40;;;25.00;35.80;;;;;;4915586;29;20431;-74
2022/02/28 10:24:07;;;;;;;3.20;2.10;;;25.30;35.80;;;;;;4933521;28;20705;-74
2022/02/28 10:26:41;;;;;;;2.47;1.43;;;25.40;34.90;;;;;;4918546;29;20415;-74
2022/02/28 10:29:09;;;;;;;6.30;1.50;;;25.60;34.60;;;;;;4917415;29;20458;-75
2022/02/28 10:31:38;;;;;;;3.00;1.73;;;25.90;34.20;;;;;;4918446;29;20431;-72
2022/02/28 10:34:24;;;;;;;2.10;1.30;;;26.10;33.80;;;;;;4916937;29;20419;-75
2022/02/28 10:36:58;;;;;;;2.30;2.10;;;26.40;34.20;;;;;;4918273;29;20466;-74
2022/02/28 10:39:25;;;;;;;1.47;1.27;;;27.00;33.40;;;;;;4916935;29;20447;-75
2022/02/28 10:41:51;;;;;;;1.20;1.10;;;27.30;33.20;;;;;;4918411;29;20427;-75
2022/02/28 10:44:17;;;;;;;2.57;1.40;;;27.50;32.00;;;;;;4917875;29;20460;-74
2022/02/28 10:46:45;;;;;;;1.87;1.67;;;27.50;31.80;;;;;;4915643;29;20459;-74
2022/02/28 10:49:20;;;;;;;3.13;2.37;;;27.60;32.00;;;;;;4918686;29;20175;-74
2022/02/28 10:52:12;;;;;;;2.83;2.63;;;27.70;31.90;;;;;;4916973;29;20459;-74
2022/02/28 10:54:43;;;;;;;1.77;1.47;;;27.90;31.70;;;;;;4918449;29;20423;-73
2022/02/28 10:57:12;;;;;;;1.90;1.63;;;28.10;31.60;;;;;;4909001;29;20471;-73
2022/02/28 10:59:41;;;;;;;2.57;2.37;;;28.10;30.10;;;;;;4917856;29;20447;-74
2022/02/28 11:02:08;;;;;;;1.93;1.70;;;28.40;30.80;;;;;;4918174;29;20424;-74
2022/02/28 11:04:39;;;;;;;4.13;2.20;;;28.50;30.10;;;;;;4918177;29;20502;-74
2022/02/28 11:07:10;;;;;;;1.53;1.43;;;28.70;30.00;;;;;;4900997;29;20965;-74
2022/02/28 11:09:39;;;;;;;2.27;1.90;;;28.90;29.50;;;;;;4913037;29;20431;-74
2022/02/28 11:12:28;;;;;;;2.10;1.83;;;28.70;28.70;;;;;;4915099;29;20451;-74
2022/02/28 11:14:57;;;;;;;4.27;1.63;;;28.90;29.80;;;;;;4917764;29;20412;-73
2022/02/28 11:17:25;;;;;;;1.50;1.40;;;29.00;29.60;;;;;;4917037;29;20546;-70
2022/02/28 11:19:52;;;;;;;1.40;1.00;;;29.00;28.90;;;;;;4917481;29;20427;-73
2022/02/28 11:22:18;;;;;;;1.77;1.67;;;29.00;28.80;;;;;;4917537;29;20448;-73
2022/02/28 11:24:46;;;;;;;3.30;1.80;;;29.00;28.80;;;;;;4917676;29;20436;-72
2022/02/28 11:27:13;;;;;;;2.33;1.80;;;28.90;29.10;;;;;;4915521;29;20428;-73
2022/02/28 11:29:38;;;;;;;1.50;1.40;;;28.90;28.50;;;;;;4917448;29;20415;-72
2022/02/28 11:32:06;;;;;;;6.33;1.80;;;29.10;28.50;;;;;;4917416;29;20470;-73
2022/02/28 11:34:32;;;;;;;1.60;1.30;;;28.90;28.30;;;;;;4917467;29;20263;-72
2022/02/28 11:37:01;;;;;;;1.93;1.60;;;29.10;28.70;;;;;;4915854;29;21095;-76
2022/02/28 11:39:31;;;;;;;1.37;1.10;;;29.20;28.40;;;;;;4916958;29;20638;-73
2022/02/28 11:41:58;;;;;;;1.87;1.67;;;29.30;28.80;;;;;;4917400;29;20475;-74
2022/02/28 11:44:24;;;;;;;4.07;2.17;;;29.40;28.30;;;;;;4917527;29;20407;-71
2022/02/28 11:47:01;;;;;;;6.80;2.20;;;29.50;28.30;;;;;;4916721;29;21007;-73
2022/02/28 11:49:37;;;;;;;3.83;1.20;;;29.10;28.00;;;;;;4917249;29;20179;-75
2022/02/28 11:52:34;;;;;;;2.60;1.90;;;28.90;28.70;;;;;;4917023;29;20487;-75
2022/02/28 11:55:03;;;;;;;4.47;1.87;;;29.10;28.60;;;;;;4917248;29;20510;-73
2022/02/28 11:57:48;;;;;;;2.87;1.53;;;29.10;28.70;;;;;;4915924;29;20480;-74
2022/02/28 12:00:37;;;;;;;1.20;1.10;;;29.30;28.60;;;;;;4916755;29;20416;-73
2022/02/28 12:03:09;;;;;;;1.67;1.03;;;29.60;28.80;;;;;;4916871;29;20519;-73
2022/02/28 12:05:40;;;;;;;5.23;1.90;;;29.70;27.90;;;;;;4916964;29;20439;-73
2022/02/28 12:08:08;;;;;;;6.30;2.33;;;29.90;28.40;;;;;;4916193;29;20798;-73
2022/02/28 12:10:37;;;;;;;1.90;1.50;;;30.20;28.80;;;;;;4916423;29;20432;-74
2022/02/28 12:13:03;;;;;;;2.90;1.80;;;30.90;28.60;;;;;;4916145;29;20522;-73
2022/02/28 12:15:29;;;;;;;2.60;2.07;;;31.00;27.80;;;;;;4916535;29;20947;-73
2022/02/28 12:17:56;;;;;;;1.33;1.20;;;31.30;27.40;;;;;;4916149;29;20463;-73
2022/02/28 12:20:26;;;;;;;2.90;2.43;;;31.50;27.70;;;;;;4916953;29;20195;-73
2022/02/28 12:22:55;;;;;;;1.63;1.50;;;31.80;27.50;;;;;;4916428;29;20479;-73
2022/02/28 12:25:51;;;;;;;2.23;2.03;;;31.60;27.00;;;;;;4916258;29;20419;-73
2022/02/28 12:28:29;;;;;;;3.57;3.27;;;31.70;26.70;;;;;;4916019;29;20515;-73
2022/02/28 12:31:04;;;;;;;1.10;0.97;;;31.20;27.00;;;;;;4916877;29;20408;-74
2022/02/28 12:33:33;;;;;;;1.80;1.67;;;31.10;26.90;;;;;;4917087;29;20434;-74
2022/02/28 12:36:11;;;;;;;7.43;2.43;;;31.10;27.00;;;;;;4917107;29;21106;-74
2022/02/28 12:38:41;;;;;;;1.17;1.07;;;31.30;27.10;;;;;;4915842;29;20500;-73
2022/02/28 12:41:09;;;;;;;3.13;1.40;;;31.60;27.60;;;;;;4916370;29;20411;-73
2022/02/28 12:43:36;;;;;;;1.53;1.40;;;31.60;27.30;;;;;;4915757;29;20436;-72
2022/02/28 12:46:09;;;;;;;4.93;1.77;;;31.70;27.30;;;;;;4916437;29;20407;-73
2022/02/28 12:48:37;;;;;;;1.90;1.80;;;32.10;27.40;;;;;;4915804;29;20420;-73
2022/02/28 12:51:05;;;;;;;3.20;1.77;;;32.30;26.70;;;;;;4897635;29;20451;-74